Time;durP1;ratioP1;P1;durP2;ratioP2;P2;SDS_P1;SDS_P2;PMS_P1;PMS_P2;Temp;Humidity;BMP_temperature;BMP_pressure;BME280_temperature;BME280_humidity;BME280_pressure;Samples;Min_cycle;Max_cycle;Signal;HPM_P1;HPM_P2
2023/04/03 00:01:29;;;;;;;3.53;1.63;;;;;;;9.47;46.27;93240.84;5007916;28;20547;-76
2023/04/03 00:03:55;;;;;;;6.15;1.80;;;;;;;9.40;46.30;93228.06;5005533;28;20065;-76
2023/04/03 00:06:21;;;;;;;5.97;2.15;;;;;;;9.53;45.90;93228.16;5008997;28;20034;-76
2023/04/03 00:08:47;;;;;;;1.48;1.30;;;;;;;9.26;45.83;93181.59;5008055;28;20381;-76
2023/04/03 00:11:12;;;;;;;2.25;1.30;;;;;;;9.43;45.68;93200.91;5008109;28;20544;-77
2023/04/03 00:13:39;;;;;;;1.83;1.27;;;;;;;9.58;45.77;93225.34;5007947;28;20026;-76
2023/04/03 00:16:06;;;;;;;2.15;1.20;;;;;;;9.41;46.25;93226.97;4990290;28;20120;-76
2023/04/03 00:18:31;;;;;;;3.30;2.13;;;;;;;9.42;46.06;93217.91;5000858;28;20030;-76
2023/04/03 00:20:57;;;;;;;1.20;1.10;;;;;;;9.34;46.31;93220.63;5006175;28;20092;-77
2023/04/03 00:23:23;;;;;;;1.25;1.10;;;;;;;9.37;46.24;93215.44;5008407;28;20037;-77
2023/04/03 00:25:50;;;;;;;2.35;1.00;;;;;;;9.42;46.03;93207.28;5002298;28;20044;-76
2023/04/03 00:28:15;;;;;;;1.30;0.90;;;;;;;9.51;45.99;93214.44;5010400;28;20214;-77
2023/04/03 00:30:41;;;;;;;1.92;1.23;;;;;;;9.40;46.15;93196.22;5008999;28;20048;-77
2023/04/03 00:33:07;;;;;;;1.35;1.20;;;;;;;9.57;45.92;93208.63;5005281;28;20046;-76
2023/04/03 00:35:34;;;;;;;1.85;1.10;;;;;;;9.18;46.41;93169.94;5005548;28;20381;-76
2023/04/03 00:38:00;;;;;;;1.23;0.90;;;;;;;9.32;46.21;93205.00;5004839;28;20065;-77
2023/04/03 00:40:27;;;;;;;1.08;0.98;;;;;;;9.44;46.06;93215.69;5007560;28;20035;-76
2023/04/03 00:42:58;;;;;;;2.35;0.95;;;;;;;9.43;46.01;93208.84;5007496;28;20048;-76
2023/04/03 00:45:46;;;;;;;1.15;1.08;;;;;;;9.60;45.79;93217.81;5006353;28;20092;-77
2023/04/03 00:48:18;;;;;;;1.80;1.10;;;;;;;9.49;45.80;93209.44;5006448;28;20227;-78
2023/04/03 00:50:45;;;;;;;1.15;1.08;;;;;;;9.51;46.19;93214.44;5006113;28;20568;-76
2023/04/03 00:53:16;;;;;;;1.83;1.10;;;;;;;9.41;46.34;93211.03;5007787;28;20041;-76
2023/04/03 00:55:42;;;;;;;1.60;1.50;;;;;;;9.23;46.53;93193.66;5003769;28;20018;-76
2023/04/03 00:58:09;;;;;;;3.60;0.90;;;;;;;9.28;46.11;93205.97;5001620;28;20025;-76
2023/04/03 01:00:37;;;;;;;3.20;1.60;;;;;;;9.36;46.24;93227.16;5007700;28;20065;-76
2023/04/03 01:03:03;;;;;;;2.05;1.30;;;;;;;9.08;46.17;93180.09;5006757;28;20034;-77
2023/04/03 01:05:29;;;;;;;1.10;1.00;;;;;;;9.26;46.13;93224.06;5005447;28;20127;-77
2023/04/03 01:07:55;;;;;;;2.85;1.20;;;;;;;9.19;46.55;93213.97;5006406;28;20618;-76
2023/04/03 01:10:21;;;;;;;0.90;0.90;;;;;;;9.18;46.35;93236.28;4998958;28;20032;-76
2023/04/03 01:12:50;;;;;;;1.17;1.08;;;;;;;8.92;46.49;93198.41;5008129;28;20512;-77
2023/04/03 01:15:22;;;;;;;1.85;0.90;;;;;;;9.03;46.99;93231.44;5005653;28;20497;-76
2023/04/03 01:17:56;;;;;;;1.98;1.23;;;;;;;8.97;46.77;93236.16;5006321;28;20033;-77
2023/04/03 01:20:36;;;;;;;1.23;1.10;;;;;;;8.92;47.29;93235.53;5005857;28;20042;-77
2023/04/03 01:23:08;;;;;;;1.48;1.30;;;;;;;8.91;47.31;93229.44;5007941;28;20457;-76
2023/04/03 01:25:39;;;;;;;2.53;1.48;;;;;;;8.93;47.35;93231.78;5004360;28;20033;-76
2023/04/03 01:28:07;;;;;;;1.52;1.15;;;;;;;9.13;46.64;93222.41;5001081;28;20049;-76
2023/04/03 01:30:44;;;;;;;3.92;2.05;;;;;;;8.80;47.34;93206.25;4986138;28;20030;-76
2023/04/03 01:33:09;;;;;;;8.15;3.65;;;;;;;8.89;47.23;93222.91;4989494;28;20038;-76
2023/04/03 01:35:35;;;;;;;9.25;5.05;;;;;;;8.88;47.28;93226.66;4985949;28;20029;-76
2023/04/03 01:38:01;;;;;;;9.57;4.82;;;;;;;8.70;48.06;93227.78;4986574;28;20034;-77
2023/04/03 01:40:26;;;;;;;9.30;4.07;;;;;;;8.71;48.00;93221.38;4987209;28;20033;-76
2023/04/03 01:42:51;;;;;;;6.25;3.28;;;;;;;8.52;47.84;93193.34;4986769;28;20192;-76
2023/04/03 01:45:17;;;;;;;5.07;3.08;;;;;;;8.73;47.48;93227.16;4988525;28;20041;-76
2023/04/03 01:47:42;;;;;;;6.88;3.13;;;;;;;8.59;48.50;93228.13;4985079;28;20053;-76
2023/04/03 01:50:08;;;;;;;9.52;3.80;;;;;;;8.56;48.22;93223.44;4990137;28;20038;-76
2023/04/03 01:52:34;;;;;;;8.82;4.13;;;;;;;8.48;47.93;93196.94;5006431;28;20025;-76
2023/04/03 01:54:59;;;;;;;19.27;8.15;;;;;;;8.63;48.16;93230.91;5007243;28;20034;-77
2023/04/03 01:57:25;;;;;;;21.83;8.32;;;;;;;8.33;48.21;93206.16;5010122;28;20053;-76
2023/04/03 01:59:51;;;;;;;16.40;7.32;;;;;;;8.43;48.54;93235.00;5001695;28;20527;-76
2023/04/03 02:02:17;;;;;;;7.22;3.72;;;;;;;8.04;48.90;93216.59;5005272;28;20263;-76
2023/04/03 02:04:42;;;;;;;10.43;4.85;;;;;;;8.05;48.63;93203.06;5006852;28;20025;-77
2023/04/03 02:07:07;;;;;;;10.73;4.97;;;;;;;8.24;48.88;93228.44;5005541;28;20033;-76
2023/04/03 02:09:33;;;;;;;8.88;4.32;;;;;;;8.19;48.62;93223.31;5006341;28;20416;-76
2023/04/03 02:11:58;;;;;;;6.05;3.70;;;;;;;8.23;48.56;93225.03;5006575;28;20555;-76
2023/04/03 02:14:24;;;;;;;4.50;2.40;;;;;;;8.04;48.79;93200.72;5004907;28;20180;-77
2023/04/03 02:16:50;;;;;;;5.32;2.58;;;;;;;8.21;48.54;93232.50;5003050;28;20087;-76
2023/04/03 02:19:15;;;;;;;5.53;2.75;;;;;;;8.12;48.83;93229.06;5008752;28;20025;-76
2023/04/03 02:21:41;;;;;;;4.40;2.33;;;;;;;7.96;48.90;93218.16;5006432;28;20389;-77
2023/04/03 02:24:07;;;;;;;3.95;2.42;;;;;;;8.15;48.95;93233.75;5005236;28;20580;-76
2023/04/03 02:26:32;;;;;;;4.40;2.20;;;;;;;8.11;49.18;93223.00;5006033;28;20617;-75
2023/04/03 02:28:58;;;;;;;4.75;2.30;;;;;;;8.08;48.95;93226.25;5005916;28;20117;-76
2023/04/03 02:31:23;;;;;;;2.10;1.90;;;;;;;8.17;49.00;93233.44;5005357;28;20051;-76
2023/04/03 02:33:49;;;;;;;4.20;2.20;;;;;;;8.07;48.94;93221.28;5003592;28;20038;-76
2023/04/03 02:36:15;;;;;;;4.18;2.28;;;;;;;7.96;49.12;93214.75;5005079;28;20095;-76
2023/04/03 02:38:40;;;;;;;4.22;2.63;;;;;;;8.00;49.18;93215.66;5005968;28;20133;-77
2023/04/03 02:41:08;;;;;;;3.83;2.90;;;;;;;8.06;49.17;93220.50;5005086;28;20400;-76
2023/04/03 02:43:34;;;;;;;4.05;2.65;;;;;;;8.08;49.44;93217.53;5006687;28;20232;-77
2023/04/03 02:45:59;;;;;;;2.75;2.33;;;;;;;7.99;49.35;93206.94;5005153;28;20368;-76
2023/04/03 02:48:26;;;;;;;3.65;2.42;;;;;;;8.01;49.30;93212.72;5005383;28;20579;-77
2023/04/03 02:50:51;;;;;;;3.17;2.00;;;;;;;7.97;49.23;93200.41;5004889;28;20088;-76
2023/04/03 02:53:17;;;;;;;4.60;1.58;;;;;;;8.01;49.12;93206.63;5005955;28;20479;-77
2023/04/03 02:55:44;;;;;;;4.60;1.55;;;;;;;7.96;49.22;93194.34;5007391;28;20464;-76
2023/04/03 02:58:09;;;;;;;1.50;1.30;;;;;;;7.79;49.52;93182.94;5005717;28;20413;-77
2023/04/03 03:00:35;;;;;;;2.67;1.50;;;;;;;7.93;49.55;93202.88;5004098;28;20068;-76
2023/04/03 03:03:01;;;;;;;1.55;1.20;;;;;;;7.66;49.61;93179.31;5005764;28;20373;-76
2023/04/03 03:05:27;;;;;;;3.60;1.42;;;;;;;7.70;50.02;93190.84;5003237;28;20040;-76
2023/04/03 03:07:53;;;;;;;3.30;1.63;;;;;;;7.71;49.89;93197.69;5005651;28;20113;-76
2023/04/03 03:10:19;;;;;;;3.58;1.67;;;;;;;7.92;49.46;93192.63;5003449;28;20557;-76
2023/04/03 03:12:45;;;;;;;6.22;2.03;;;;;;;7.83;49.52;93181.22;5005816;28;20599;-77
2023/04/03 03:15:11;;;;;;;2.83;1.50;;;;;;;7.81;49.78;93188.72;5004262;28;20123;-76
2023/04/03 03:17:36;;;;;;;2.20;2.00;;;;;;;7.68;49.90;93171.84;5005064;28;20607;-77
2023/04/03 03:20:03;;;;;;;2.25;1.80;;;;;;;7.71;49.96;93187.91;5006743;28;20119;-76
2023/04/03 03:22:29;;;;;;;2.50;2.22;;;;;;;7.56;50.13;93183.03;5010420;28;20314;-76
2023/04/03 03:24:54;;;;;;;2.97;2.50;;;;;;;7.46;50.11;93175.41;5008555;28;20374;-77
2023/04/03 03:27:20;;;;;;;4.32;1.98;;;;;;;7.57;50.55;93187.25;5008968;28;20076;-76
2023/04/03 03:29:46;;;;;;;2.90;2.10;;;;;;;7.52;50.42;93179.47;5007425;28;20395;-76
2023/04/03 03:32:11;;;;;;;3.60;2.20;;;;;;;7.67;50.50;93189.63;5007511;28;20037;-74
2023/04/03 03:34:37;;;;;;;3.05;2.08;;;;;;;7.52;50.38;93183.97;5010801;28;20036;-76
2023/04/03 03:37:02;;;;;;;3.35;1.75;;;;;;;7.49;50.98;93188.00;5008508;28;20590;-76
2023/04/03 03:39:28;;;;;;;2.47;1.88;;;;;;;7.52;50.73;93194.56;5009175;28;20034;-74
2023/04/03 03:41:53;;;;;;;4.90;2.60;;;;;;;7.38;50.94;93178.81;5007469;28;20073;-77
2023/04/03 03:44:20;;;;;;;5.38;2.33;;;;;;;7.17;50.88;93149.50;5008506;28;20456;-74
2023/04/03 03:46:45;;;;;;;3.45;2.30;;;;;;;7.51;51.21;93191.13;5007414;28;20038;-74
2023/04/03 03:49:11;;;;;;;2.28;1.90;;;;;;;7.50;50.90;93189.56;5016519;28;20075;-74
2023/04/03 03:51:40;;;;;;;3.78;2.90;;;;;;;7.52;51.32;93190.06;5006719;28;20036;-74
2023/04/03 03:54:06;;;;;;;2.58;2.30;;;;;;;7.54;51.11;93193.16;5009833;28;20103;-76
2023/04/03 03:56:32;;;;;;;2.38;1.90;;;;;;;7.50;51.14;93200.16;5009519;28;20030;-74
2023/04/03 03:58:57;;;;;;;4.40;1.92;;;;;;;7.53;51.07;93191.59;5015208;28;20036;-77
2023/04/03 04:01:24;;;;;;;2.33;1.85;;;;;;;7.48;50.94;93194.41;5007544;28;20034;-77
2023/04/03 04:03:49;;;;;;;2.00;1.80;;;;;;;7.36;51.13;93191.56;5007019;28;20037;-74
2023/04/03 04:06:15;;;;;;;1.50;1.40;;;;;;;7.34;51.20;93185.03;5007786;28;20036;-76
2023/04/03 04:08:41;;;;;;;3.72;1.98;;;;;;;7.35;51.15;93187.34;5023574;28;20160;-77
2023/04/03 04:11:09;;;;;;;2.75;2.20;;;;;;;7.60;50.47;93193.78;5008106;28;20503;-76
2023/04/03 04:13:34;;;;;;;4.72;2.72;;;;;;;7.43;51.00;93191.13;5010784;28;20038;-76
2023/04/03 04:15:59;;;;;;;2.92;2.38;;;;;;;7.21;50.97;93173.47;5005688;28;20048;-76
2023/04/03 04:18:25;;;;;;;4.00;2.53;;;;;;;7.14;51.46;93189.00;5009603;28;20103;-76
2023/04/03 04:20:51;;;;;;;6.53;3.10;;;;;;;7.29;51.77;93212.38;5006579;28;20038;-76
2023/04/03 04:23:18;;;;;;;3.58;2.60;;;;;;;7.53;51.03;93215.41;5015099;28;20049;-76
2023/04/03 04:25:47;;;;;;;3.30;2.65;;;;;;;7.60;51.10;93207.00;5014521;28;20084;-78
2023/04/03 04:28:12;;;;;;;3.63;3.13;;;;;;;7.27;51.93;93188.13;5008015;28;20346;-76
2023/04/03 04:30:38;;;;;;;4.30;2.97;;;;;;;7.32;52.62;93208.34;5007478;28;20061;-77
2023/04/03 04:33:03;;;;;;;4.70;3.80;;;;;;;7.22;52.56;93196.97;5006723;28;20084;-76
2023/04/03 04:35:29;;;;;;;12.75;6.85;;;;;;;7.23;52.63;93203.03;5005470;28;20033;-76
2023/04/03 04:37:54;;;;;;;9.80;6.72;;;;;;;7.24;52.52;93194.00;5007712;28;20040;-76
2023/04/03 04:40:19;;;;;;;7.75;4.50;;;;;;;7.38;52.49;93202.63;5007320;28;20619;-76
2023/04/03 04:42:45;;;;;;;7.47;3.53;;;;;;;7.43;52.51;93201.69;5006736;28;20691;-76
2023/04/03 04:45:10;;;;;;;8.43;4.20;;;;;;;7.64;52.28;93214.03;5012913;28;20034;-77
2023/04/03 04:47:36;;;;;;;5.20;3.92;;;;;;;7.40;52.64;93212.88;5007030;28;20523;-76
2023/04/03 04:50:01;;;;;;;6.88;4.10;;;;;;;7.40;53.23;93232.19;5007333;28;20034;-76
2023/04/03 04:52:27;;;;;;;5.80;3.47;;;;;;;7.39;53.43;93227.97;5009141;28;20400;-76
2023/04/03 04:54:52;;;;;;;5.10;2.72;;;;;;;7.47;53.56;93232.53;5007834;28;20038;-76
2023/04/03 04:57:17;;;;;;;5.50;2.83;;;;;;;7.43;53.74;93236.88;5005240;28;20293;-77
2023/04/03 04:59:43;;;;;;;3.33;2.75;;;;;;;7.37;54.10;93216.16;5006822;28;20570;-76
2023/04/03 05:02:08;;;;;;;3.63;2.85;;;;;;;7.37;54.16;93219.56;5006046;28;20049;-77
2023/04/03 05:04:34;;;;;;;5.20;2.92;;;;;;;7.42;54.27;93222.09;5008133;28;20084;-76
2023/04/03 05:06:59;;;;;;;3.28;2.58;;;;;;;7.50;54.02;93239.84;5011928;28;20041;-77
2023/04/03 05:09:25;;;;;;;3.33;2.72;;;;;;;7.49;54.36;93227.69;5005664;28;20049;-76
2023/04/03 05:11:51;;;;;;;4.68;2.60;;;;;;;7.63;54.45;93241.56;5006910;28;20049;-76
2023/04/03 05:14:16;;;;;;;5.82;2.70;;;;;;;7.73;54.68;93251.13;5005227;28;20520;-76
2023/04/03 05:16:42;;;;;;;4.15;2.75;;;;;;;7.64;54.73;93224.63;5008066;28;20033;-77
2023/04/03 05:19:08;;;;;;;7.13;3.75;;;;;;;7.87;54.67;93253.66;5005942;28;20065;-76
2023/04/03 05:21:33;;;;;;;8.85;3.60;;;;;;;7.85;54.66;93246.03;5005666;28;20698;-77
2023/04/03 05:24:02;;;;;;;5.88;5.13;;;;;;;7.39;55.52;93267.66;5004816;28;20040;-76
2023/04/03 05:26:29;;;;;;;7.93;4.43;;;;;;;7.06;56.63;93255.84;5006803;28;20352;-76
2023/04/03 05:28:55;;;;;;;26.35;7.60;;;;;;;6.91;57.13;93269.44;5004523;28;20079;-77
2023/04/03 05:31:20;;;;;;;19.98;7.35;;;;;;;7.09;57.08;93269.22;5003586;28;20029;-77
2023/04/03 05:33:46;;;;;;;19.75;7.80;;;;;;;7.46;55.71;93254.00;5006092;28;20033;-76
2023/04/03 05:36:12;;;;;;;24.35;9.25;;;;;;;7.61;55.11;93254.34;5006490;28;20034;-77
2023/04/03 05:38:38;;;;;;;17.83;8.20;;;;;;;7.81;53.81;93254.91;5004328;28;20117;-76
2023/04/03 05:41:04;;;;;;;13.88;8.35;;;;;;;7.79;53.43;93239.31;5006421;28;20040;-76
2023/04/03 05:43:30;;;;;;;17.20;7.72;;;;;;;7.88;52.95;93234.81;5005778;28;20017;-76
2023/04/03 05:45:55;;;;;;;21.08;8.65;;;;;;;7.90;53.30;93258.34;5005205;28;20511;-76
2023/04/03 05:48:20;;;;;;;21.85;8.57;;;;;;;8.13;53.72;93249.16;5003746;28;20610;-78
2023/04/03 05:50:46;;;;;;;15.25;8.07;;;;;;;8.12;53.56;93229.06;5004663;28;20046;-76
2023/04/03 05:53:24;;;;;;;17.83;8.55;;;;;;;8.18;53.09;93248.22;5005856;28;20381;-78
2023/04/03 05:55:50;;;;;;;20.73;8.48;;;;;;;8.12;52.74;93235.13;5004876;28;20086;-77
2023/04/03 05:58:15;;;;;;;16.30;8.45;;;;;;;8.19;52.72;93245.28;5008407;28;20455;-76
2023/04/03 06:00:40;;;;;;;22.98;8.48;;;;;;;8.21;53.19;93240.47;5002559;28;20042;-76
2023/04/03 06:03:06;;;;;;;19.58;8.18;;;;;;;8.37;52.79;93243.41;5006340;28;20439;-76
2023/04/03 06:05:32;;;;;;;24.50;8.85;;;;;;;8.39;52.91;93228.75;5003336;28;20029;-76
2023/04/03 06:07:57;;;;;;;19.92;9.40;;;;;;;8.52;53.03;93237.63;5004799;28;20033;-76
2023/04/03 06:10:23;;;;;;;18.40;9.40;;;;;;;8.33;52.90;93194.78;5006614;28;20026;-76
2023/04/03 06:12:48;;;;;;;21.88;9.85;;;;;;;8.73;52.46;93237.75;5004610;28;20385;-77
2023/04/03 06:15:14;;;;;;;23.85;10.32;;;;;;;8.82;52.33;93218.09;5005926;28;20092;-77
2023/04/03 06:17:40;;;;;;;25.63;10.93;;;;;;;8.87;52.12;93223.22;5004326;28;20033;-76
2023/04/03 06:20:06;;;;;;;30.13;11.57;;;;;;;8.92;52.36;93215.09;5005048;28;20470;-78
2023/04/03 06:22:31;;;;;;;21.40;10.23;;;;;;;8.95;51.90;93219.00;5009938;28;20049;-77
2023/04/03 06:24:57;;;;;;;18.05;10.65;;;;;;;9.05;51.61;93229.25;5004988;28;20530;-76
2023/04/03 06:27:22;;;;;;;24.30;10.90;;;;;;;9.02;51.55;93235.97;5003465;28;20208;-77
2023/04/03 06:29:49;;;;;;;22.17;11.10;;;;;;;9.20;51.05;93226.09;5006385;28;20038;-75
2023/04/03 06:32:15;;;;;;;19.40;10.77;;;;;;;9.17;50.81;93216.13;5004242;28;20033;-76
2023/04/03 06:34:41;;;;;;;21.80;11.18;;;;;;;8.97;51.31;93232.72;5005478;28;20034;-76
2023/04/03 06:37:14;;;;;;;19.63;10.60;;;;;;;8.92;51.04;93240.84;5006040;28;20017;-76
2023/04/03 06:39:40;;;;;;;16.30;8.13;;;;;;;8.95;50.59;93240.22;5012769;28;20063;-77
2023/04/03 06:42:05;;;;;;;25.33;7.72;;;;;;;8.51;51.59;93238.75;5006242;28;20443;-76
2023/04/03 06:44:33;;;;;;;11.50;7.05;;;;;;;7.79;53.30;93222.66;5003799;28;20179;-76
2023/04/03 06:46:59;;;;;;;14.55;7.32;;;;;;;7.95;53.77;93232.50;5005946;28;20037;-76
2023/04/03 06:49:25;;;;;;;27.17;10.13;;;;;;;7.69;54.49;93242.22;5006193;28;20041;-77
2023/04/03 06:51:51;;;;;;;16.33;13.23;;;;;;;7.36;55.31;93233.88;5006050;28;20037;-76
2023/04/03 06:54:17;;;;;;;18.65;14.45;;;;;;;7.47;55.26;93245.75;5007686;28;20431;-77
2023/04/03 06:56:42;;;;;;;21.83;16.10;;;;;;;7.82;54.06;93246.66;5009733;28;20037;-76
2023/04/03 06:59:09;;;;;;;27.48;17.15;;;;;;;8.12;53.22;93258.97;5006451;28;20123;-76
2023/04/03 07:01:35;;;;;;;29.05;14.02;;;;;;;8.05;53.37;93244.66;5009201;28;20053;-77
2023/04/03 07:04:00;;;;;;;24.80;14.05;;;;;;;8.06;53.18;93203.84;5007409;28;20038;-77
2023/04/03 07:06:28;;;;;;;30.63;17.08;;;;;;;8.09;54.37;93256.19;5008477;28;20145;-77
2023/04/03 07:08:55;;;;;;;26.02;17.27;;;;;;;8.05;54.44;93240.13;5009692;28;20046;-78
2023/04/03 07:11:21;;;;;;;23.95;14.88;;;;;;;8.05;54.81;93242.00;5011196;28;20378;-76
2023/04/03 07:13:46;;;;;;;24.23;16.35;;;;;;;8.48;53.60;93232.19;5007661;28;20032;-77
2023/04/03 07:16:12;;;;;;;19.75;13.77;;;;;;;8.91;53.20;93224.16;5008599;28;20472;-76
2023/04/03 07:18:37;;;;;;;16.10;14.32;;;;;;;9.03;52.12;93236.75;5009138;28;20390;-77
2023/04/03 07:21:03;;;;;;;20.55;14.50;;;;;;;9.13;51.62;93231.16;5009645;28;20559;-77
2023/04/03 07:23:29;;;;;;;21.27;13.43;;;;;;;9.42;50.98;93225.88;5007229;28;20561;-76
2023/04/03 07:25:55;;;;;;;28.48;11.23;;;;;;;9.51;50.26;93204.59;5006774;28;20021;-76
2023/04/03 07:28:25;;;;;;;18.80;11.07;;;;;;;9.64;50.38;93226.69;5008041;28;20365;-77
2023/04/03 07:31:01;;;;;;;15.55;10.18;;;;;;;9.52;50.38;93219.44;5008754;28;20044;-76
2023/04/03 07:33:26;;;;;;;11.45;8.70;;;;;;;9.51;50.29;93225.03;5006505;28;20037;-76
2023/04/03 07:35:52;;;;;;;16.17;9.35;;;;;;;9.45;50.38;93190.72;5006525;28;21682;-77
2023/04/03 07:38:18;;;;;;;18.25;9.85;;;;;;;9.71;50.38;93213.69;5007397;28;20600;-77
2023/04/03 07:40:48;;;;;;;14.50;9.50;;;;;;;9.05;51.29;93213.34;5008909;28;20025;-76
2023/04/03 07:43:18;;;;;;;22.20;10.75;;;;;;;9.34;50.91;93220.63;5006298;28;20092;-77
2023/04/03 07:45:44;;;;;;;14.48;9.50;;;;;;;9.38;50.42;93195.78;5005736;28;20672;-76
2023/04/03 07:48:11;;;;;;;11.38;7.85;;;;;;;9.66;49.63;93203.25;5007138;28;20680;-76
2023/04/03 07:50:36;;;;;;;13.95;7.65;;;;;;;9.61;49.67;93169.72;5009237;28;20037;-76
2023/04/03 07:53:02;;;;;;;10.90;7.35;;;;;;;9.92;49.62;93197.78;5008047;28;20034;-76
2023/04/03 07:55:28;;;;;;;12.70;7.65;;;;;;;9.24;49.56;93194.44;5007506;28;20022;-76
2023/04/03 07:57:54;;;;;;;20.65;10.13;;;;;;;8.82;51.82;93210.13;5010558;28;20048;-76
2023/04/03 08:00:19;;;;;;;16.42;8.27;;;;;;;9.22;50.90;93192.09;5006648;28;21522;-76
2023/04/03 08:02:50;;;;;;;13.95;7.63;;;;;;;8.84;51.58;93204.53;5007954;28;20052;-77
2023/04/03 08:05:19;;;;;;;10.80;7.13;;;;;;;8.66;52.69;93197.72;5012494;28;20103;-77
2023/04/03 08:07:45;;;;;;;25.25;7.95;;;;;;;8.82;51.52;93193.44;5007908;28;20037;-77
2023/04/03 08:10:10;;;;;;;11.77;8.15;;;;;;;8.56;51.65;93175.72;5006423;28;20289;-77
2023/04/03 08:12:36;;;;;;;15.02;8.57;;;;;;;8.77;52.41;93201.56;5007517;28;20416;-76
2023/04/03 08:15:03;;;;;;;14.05;7.97;;;;;;;8.37;53.05;93199.13;5010550;28;20037;-76
2023/04/03 08:17:28;;;;;;;21.25;7.35;;;;;;;7.73;53.73;93167.22;5007557;28;20030;-76
2023/04/03 08:19:54;;;;;;;11.88;8.05;;;;;;;8.24;53.83;93199.31;5008107;28;20156;-77
2023/04/03 08:22:19;;;;;;;12.23;8.05;;;;;;;8.14;54.39;93179.22;5007235;28;20091;-76
2023/04/03 08:24:45;;;;;;;13.70;9.32;;;;;;;7.94;54.27;93185.91;5008710;28;20049;-76
2023/04/03 08:27:11;;;;;;;11.85;9.13;;;;;;;8.43;53.25;93189.94;5007315;28;20040;-76
2023/04/03 08:29:37;;;;;;;20.08;9.05;;;;;;;8.53;53.37;93184.31;5007772;28;20496;-76
2023/04/03 08:32:04;;;;;;;15.88;10.35;;;;;;;8.63;52.71;93174.47;5005704;28;20174;-76
2023/04/03 08:34:29;;;;;;;15.45;10.15;;;;;;;8.46;53.20;93194.59;5009395;28;20041;-76
2023/04/03 08:36:55;;;;;;;19.42;12.45;;;;;;;7.94;54.86;93190.44;5006581;28;20034;-76
2023/04/03 08:39:20;;;;;;;21.73;11.68;;;;;;;8.20;54.99;93183.28;5008632;28;20099;-76
2023/04/03 08:41:47;;;;;;;20.02;10.82;;;;;;;8.62;53.71;93178.22;5005126;28;20478;-76
2023/04/03 08:44:39;;;;;;;20.52;9.98;;;;;;;8.54;53.27;93177.94;5008046;28;20034;-76
2023/04/03 08:47:20;;;;;;;21.02;12.02;;;;;;;8.49;53.34;93175.44;5007114;28;20053;-76
2023/04/03 08:49:53;;;;;;;18.05;11.60;;;;;;;8.78;53.29;93179.25;5003988;28;20540;-76
2023/04/03 08:52:41;;;;;;;18.23;13.07;;;;;;;8.55;53.41;93162.81;5008310;28;20022;-76
2023/04/03 08:55:28;;;;;;;20.25;13.60;;;;;;;8.41;53.27;93141.03;5008374;28;20435;-77
2023/04/03 08:58:19;;;;;;;24.63;14.05;;;;;;;7.99;54.62;93164.56;5008690;28;20060;-76
2023/04/03 09:00:50;;;;;;;21.77;13.20;;;;;;;8.04;55.48;93159.13;4999275;28;20076;-76
2023/04/03 09:03:19;;;;;;;21.23;13.88;;;;;;;8.48;54.27;93147.38;5009862;28;20030;-77
2023/04/03 09:05:50;;;;;;;24.40;13.38;;;;;;;8.68;54.18;93148.56;5006867;28;20111;-76
2023/04/03 09:08:25;;;;;;;19.80;12.57;;;;;;;8.81;53.76;93146.81;5007809;28;20053;-77
2023/04/03 09:11:17;;;;;;;26.23;14.55;;;;;;;8.37;54.48;93132.13;5007534;28;20026;-76
2023/04/03 09:13:53;;;;;;;21.83;13.00;;;;;;;8.37;54.60;93140.84;5006004;28;20678;-77
2023/04/03 09:16:38;;;;;;;34.55;14.32;;;;;;;8.23;55.20;93129.66;5005947;28;20081;-76
2023/04/03 09:19:21;;;;;;;28.40;12.07;;;;;;;8.61;54.78;93128.97;5007122;28;20124;-76
2023/04/03 09:21:47;;;;;;;17.23;9.88;;;;;;;8.58;54.20;93130.34;5004922;28;20061;-76
2023/04/03 09:24:16;;;;;;;19.83;11.25;;;;;;;8.30;54.51;93122.03;5006975;28;20392;-77
2023/04/03 09:26:58;;;;;;;21.83;9.48;;;;;;;8.39;54.21;93136.03;5003378;28;20102;-77
2023/04/03 09:29:24;;;;;;;16.10;9.68;;;;;;;8.54;53.70;93119.63;5004134;28;20033;-76
2023/04/03 09:32:00;;;;;;;9.45;4.63;;;;;;;8.83;51.50;93116.25;5003029;28;20018;-76
2023/04/03 09:34:27;;;;;;;7.88;3.60;;;;;;;8.73;51.20;93103.34;5008560;28;20037;-76
2023/04/03 09:36:56;;;;;;;5.43;2.63;;;;;;;8.97;50.27;93102.75;5004552;28;20206;-76
2023/04/03 09:39:24;;;;;;;2.25;1.65;;;;;;;8.97;49.06;93116.81;5007570;28;20029;-77
2023/04/03 09:42:01;;;;;;;2.28;1.55;;;;;;;9.09;48.70;93091.47;5003921;28;20042;-76
2023/04/03 09:44:37;;;;;;;2.25;1.67;;;;;;;8.79;48.41;93086.16;5005001;28;20042;-77
2023/04/03 09:47:39;;;;;;;4.60;1.38;;;;;;;8.75;48.92;93076.53;5008081;28;20037;-76
2023/04/03 09:50:13;;;;;;;2.22;1.40;;;;;;;9.29;48.14;93094.19;4985996;28;20441;-76
2023/04/03 09:52:40;;;;;;;4.30;1.87;;;;;;;9.16;47.57;93092.53;5000352;28;20461;-77
2023/04/03 09:55:16;;;;;;;2.50;1.33;;;;;;;9.07;47.81;93094.44;5008545;28;20037;-76
2023/04/03 09:57:42;;;;;;;3.65;1.60;;;;;;;8.76;48.28;93056.84;5005149;28;20033;-77
2023/04/03 10:00:22;;;;;;;3.95;2.55;;;;;;;9.07;47.65;93083.06;5004603;28;20111;-76
2023/04/03 10:02:52;;;;;;;1.50;1.40;;;;;;;9.36;47.38;93097.09;5012831;28;20404;-76
2023/04/03 10:05:44;;;;;;;1.95;1.60;;;;;;;9.33;47.50;93096.97;4999791;28;20396;-76
2023/04/03 10:08:15;;;;;;;2.72;1.73;;;;;;;9.30;47.52;93097.59;4983343;28;20133;-76
2023/04/03 10:11:07;;;;;;;2.33;1.40;;;;;;;9.00;47.88;93099.47;4985231;28;20573;-76
2023/04/03 10:13:33;;;;;;;2.75;1.60;;;;;;;8.97;48.44;93090.28;4986497;28;20511;-76
2023/04/03 10:16:15;;;;;;;4.25;1.73;;;;;;;9.24;47.74;93094.34;4984867;28;20042;-77
2023/04/03 10:19:01;;;;;;;3.13;1.35;;;;;;;9.47;47.53;93097.50;4991732;28;20042;-76
2023/04/03 10:21:36;;;;;;;4.60;1.50;;;;;;;8.97;48.40;93078.91;4987046;28;20776;-76
2023/04/03 10:24:25;;;;;;;2.47;1.80;;;;;;;8.97;48.25;93077.03;4993195;28;20121;-75
2023/04/03 10:27:03;;;;;;;3.63;1.98;;;;;;;9.08;48.18;93069.47;4984625;28;20068;-76
2023/04/03 10:29:40;;;;;;;6.00;1.80;;;;;;;9.13;48.60;93077.28;4990966;28;20040;-76
2023/04/03 10:32:12;;;;;;;2.50;1.92;;;;;;;9.12;48.94;93075.72;4989254;28;20412;-77
2023/04/03 10:34:44;;;;;;;7.03;2.30;;;;;;;9.01;48.94;93042.66;4991628;28;20022;-76
2023/04/03 10:37:23;;;;;;;2.55;1.90;;;;;;;9.26;48.66;93065.66;4987520;28;20099;-76
2023/04/03 10:40:13;;;;;;;7.68;2.58;;;;;;;8.97;48.68;93023.97;4988087;28;20350;-76
2023/04/03 10:42:55;;;;;;;6.63;3.38;;;;;;;9.02;49.46;93052.19;4989462;28;20038;-76
2023/04/03 10:45:32;;;;;;;3.10;2.17;;;;;;;8.84;49.58;93054.16;5005247;28;20042;-77
2023/04/03 10:48:13;;;;;;;4.50;2.47;;;;;;;8.67;49.62;93042.84;4989557;28;20513;-76
2023/04/03 10:50:53;;;;;;;4.00;2.28;;;;;;;8.70;50.33;93061.56;4990960;28;20589;-76
2023/04/03 10:53:34;;;;;;;2.92;2.05;;;;;;;9.00;49.72;93051.72;4988978;28;20089;-76
2023/04/03 10:56:10;;;;;;;2.75;1.70;;;;;;;9.00;49.17;93025.19;5005450;28;20042;-75
2023/04/03 10:58:45;;;;;;;3.50;1.75;;;;;;;8.77;50.51;93031.88;4988254;28;20022;-76
2023/04/03 11:01:21;;;;;;;2.88;2.10;;;;;;;8.83;51.03;93030.63;5011117;28;20548;-76
2023/04/03 11:03:57;;;;;;;1.83;1.70;;;;;;;9.14;51.94;93062.16;5009041;28;20511;-76
2023/04/03 11:06:27;;;;;;;2.35;1.90;;;;;;;8.98;52.14;93024.75;5008107;28;20029;-76
2023/04/03 11:08:59;;;;;;;3.78;2.08;;;;;;;8.65;53.08;93055.66;5008769;28;20088;-76
2023/04/03 11:11:32;;;;;;;6.40;2.10;;;;;;;8.62;54.51;93072.19;5011906;28;20271;-77
2023/04/03 11:14:02;;;;;;;3.08;2.65;;;;;;;8.95;55.60;93081.09;5008463;28;20053;-76
2023/04/03 11:16:31;;;;;;;4.25;2.55;;;;;;;8.43;56.13;93076.00;5011575;28;20669;-76
2023/04/03 11:19:02;;;;;;;2.88;2.58;;;;;;;8.39;57.80;93064.47;5007885;28;20041;-76
2023/04/03 11:21:40;;;;;;;5.30;2.58;;;;;;;8.21;60.78;93052.41;5008337;28;20519;-75
2023/04/03 11:24:17;;;;;;;2.55;2.33;;;;;;;8.32;63.65;93048.28;5015470;28;20126;-77
2023/04/03 11:26:45;;;;;;;9.60;3.10;;;;;;;8.21;64.25;93057.69;5008469;28;20033;-76
2023/04/03 11:29:18;;;;;;;5.70;3.90;;;;;;;8.31;66.84;93062.66;5008736;28;20202;-76
2023/04/03 11:32:17;;;;;;;7.47;4.82;;;;;;;8.01;69.53;93077.66;5006368;28;20022;-76
2023/04/03 11:34:47;;;;;;;12.27;4.95;;;;;;;8.13;71.23;93077.00;5016874;28;20611;-76
2023/04/03 11:37:22;;;;;;;5.80;5.20;;;;;;;8.12;71.19;93080.75;5010020;28;20029;-76
2023/04/03 11:39:56;;;;;;;6.63;4.90;;;;;;;7.89;72.36;93061.63;5007695;28;20780;-76
2023/04/03 11:42:37;;;;;;;5.53;4.85;;;;;;;7.68;73.85;93080.00;5017156;28;20531;-76
2023/04/03 11:45:21;;;;;;;5.85;5.05;;;;;;;7.77;74.35;93073.97;5007894;28;20791;-76